createdAt,value
2023-02-25T00:02:03.250Z,7.50
2023-02-25T00:04:32.653Z,7.50
2023-02-25T00:07:02.706Z,7.50
2023-02-25T00:09:31.871Z,7.50
2023-02-25T00:12:00.562Z,7.50
2023-02-25T00:14:29.616Z,7.50
2023-02-25T00:16:58.213Z,7.50
2023-02-25T00:19:27.522Z,7.50
2023-02-25T00:21:55.992Z,7.60
2023-02-25T00:24:25.783Z,7.60
2023-02-25T00:26:54.301Z,7.60
2023-02-25T00:29:23.197Z,7.70
2023-02-25T00:31:51.925Z,7.70
2023-02-25T00:34:20.472Z,7.70
2023-02-25T00:36:50.532Z,7.80
2023-02-25T00:39:19.297Z,7.80
2023-02-25T00:41:50.197Z,7.90
2023-02-25T00:44:19.903Z,7.90
2023-02-25T00:46:48.493Z,8.00
2023-02-25T00:49:31.479Z,8.00
2023-02-25T00:52:00.769Z,8.10
2023-02-25T00:54:29.586Z,8.10
2023-02-25T00:56:59.367Z,8.20
2023-02-25T00:59:28.026Z,8.20
2023-02-25T01:01:56.434Z,8.20
2023-02-25T01:04:25.163Z,8.20
2023-02-25T01:06:55.327Z,8.30
2023-02-25T01:09:24.256Z,8.30
2023-02-25T01:11:52.643Z,8.30
2023-02-25T01:14:24.542Z,8.40
2023-02-25T01:16:56.216Z,8.40
2023-02-25T01:19:27.114Z,8.40
2023-02-25T01:21:57.421Z,8.40
2023-02-25T01:24:27.614Z,8.40
2023-02-25T01:26:58.975Z,8.40
2023-02-25T01:29:30.971Z,8.40
2023-02-25T01:32:02.498Z,8.30
2023-02-25T01:34:32.091Z,8.30
2023-02-25T01:37:03.937Z,8.30
2023-02-25T01:39:33.562Z,8.30
2023-02-25T01:42:05.382Z,8.20
2023-02-25T01:44:38.974Z,8.20
2023-02-25T01:47:08.141Z,8.20
2023-02-25T01:49:42.630Z,8.20
2023-02-25T01:52:16.798Z,8.20
2023-02-25T01:54:48.712Z,8.20
2023-02-25T01:57:19.989Z,8.20
2023-02-25T01:59:51.470Z,8.10
2023-02-25T02:02:23.422Z,8.20
2023-02-25T02:04:54.889Z,8.20
2023-02-25T02:07:24.654Z,8.20
2023-02-25T02:09:57.246Z,8.20
2023-02-25T02:12:26.862Z,8.20
2023-02-25T02:14:58.246Z,8.30
2023-02-25T02:17:34.588Z,8.30
2023-02-25T02:20:16.057Z,8.30
2023-02-25T02:23:06.097Z,8.30
2023-02-25T02:26:05.066Z,8.30
2023-02-25T02:29:02.627Z,8.30
2023-02-25T02:31:49.180Z,8.40
2023-02-25T02:34:30.309Z,8.40
2023-02-25T02:37:11.397Z,8.40
2023-02-25T02:39:50.888Z,8.40
2023-02-25T02:42:27.603Z,8.40
2023-02-25T02:45:03.812Z,8.40
2023-02-25T02:47:37.219Z,8.50
2023-02-25T02:50:11.583Z,8.50
2023-02-25T02:52:43.991Z,8.50
2023-02-25T02:55:22.357Z,8.50
2023-02-25T02:57:56.849Z,8.50
2023-02-25T03:00:30.472Z,8.50
2023-02-25T03:03:08.360Z,8.60
2023-02-25T03:05:39.362Z,8.60
2023-02-25T03:08:11.540Z,8.50
2023-02-25T03:10:40.001Z,8.50
2023-02-25T03:13:08.500Z,8.40
2023-02-25T03:15:39.638Z,8.40
2023-02-25T03:18:19.312Z,8.30
2023-02-25T03:20:50.527Z,8.20
2023-02-25T03:23:23.474Z,8.20
2023-02-25T03:25:56.437Z,8.10
2023-02-25T03:28:31.056Z,8.00
2023-02-25T03:31:06.556Z,8.00
2023-02-25T03:33:48.579Z,7.90
2023-02-25T03:36:23.339Z,7.90
2023-02-25T03:38:56.486Z,7.90
2023-02-25T03:41:31.422Z,7.80
2023-02-25T03:44:01.373Z,7.80
2023-02-25T03:46:31.219Z,7.80
2023-02-25T03:49:02.945Z,7.70
2023-02-25T03:51:38.305Z,7.70
2023-02-25T03:54:07.638Z,7.70
2023-02-25T03:56:46.096Z,7.70
2023-02-25T03:59:14.729Z,7.60
2023-02-25T04:01:45.985Z,7.60
2023-02-25T04:04:15.788Z,7.60
2023-02-25T04:06:44.223Z,7.60
2023-02-25T04:09:12.875Z,7.60
2023-02-25T04:11:41.230Z,7.60
2023-02-25T04:14:09.894Z,7.50
2023-02-25T04:16:38.501Z,7.50
2023-02-25T04:19:07.052Z,7.50
2023-02-25T04:21:38.059Z,7.50
2023-02-25T04:24:07.851Z,7.50
2023-02-25T04:26:36.530Z,7.50
2023-02-25T04:29:05.510Z,7.40
2023-02-25T04:31:34.133Z,7.40
2023-02-25T04:34:02.540Z,7.40
2023-02-25T04:36:32.676Z,7.30
2023-02-25T04:39:04.763Z,7.30
2023-02-25T04:41:35.540Z,7.30
2023-02-25T04:44:05.311Z,7.30
2023-02-25T04:46:35.039Z,7.20
2023-02-25T04:49:04.400Z,7.20
2023-02-25T04:51:32.778Z,7.20
2023-02-25T04:54:02.532Z,7.10
2023-02-25T04:56:30.974Z,7.10
2023-02-25T04:58:59.916Z,7.10
2023-02-25T05:01:28.351Z,7.10
2023-02-25T05:03:57.292Z,7.00
2023-02-25T05:06:26.127Z,7.00
2023-02-25T05:08:54.602Z,7.00
2023-02-25T05:11:25.073Z,7.00
2023-02-25T05:13:55.686Z,7.00
2023-02-25T05:16:24.860Z,7.00
2023-02-25T05:18:54.569Z,7.00
2023-02-25T05:21:25.517Z,6.90
2023-02-25T05:23:54.566Z,6.90
2023-02-25T05:26:26.566Z,6.90
2023-02-25T05:28:57.534Z,6.80
2023-02-25T05:31:26.521Z,6.80
2023-02-25T05:33:55.492Z,6.70
2023-02-25T05:36:27.850Z,6.70
2023-02-25T05:38:59.115Z,6.60
2023-02-25T05:41:28.806Z,6.60
2023-02-25T05:43:58.324Z,6.60
2023-02-25T05:46:27.424Z,6.50
2023-02-25T05:48:56.098Z,6.50
2023-02-25T05:51:24.867Z,6.50
2023-02-25T05:53:53.962Z,6.40
2023-02-25T05:56:25.646Z,6.40
2023-02-25T05:58:55.837Z,6.40
2023-02-25T06:01:27.813Z,6.40
2023-02-25T06:03:58.690Z,6.30
2023-02-25T06:06:28.873Z,6.30
2023-02-25T06:08:57.558Z,6.30
2023-02-25T06:11:28.010Z,6.30
2023-02-25T06:13:59.459Z,6.20
2023-02-25T06:16:32.521Z,6.20
2023-02-25T06:19:02.228Z,6.20
2023-02-25T06:21:31.041Z,6.20
2023-02-25T06:23:59.540Z,6.20
2023-02-25T06:26:28.166Z,6.10
2023-02-25T06:28:58.539Z,6.10
2023-02-25T06:31:27.580Z,6.10
2023-02-25T06:33:56.233Z,6.10
2023-02-25T06:36:25.009Z,6.10
2023-02-25T06:38:53.685Z,6.10
2023-02-25T06:41:23.660Z,6.10
2023-02-25T06:43:52.851Z,6.00
2023-02-25T06:46:25.036Z,6.00
2023-02-25T06:48:54.520Z,6.00
2023-02-25T06:51:23.066Z,6.00
2023-02-25T06:53:53.122Z,6.00
2023-02-25T06:56:22.738Z,6.00
2023-02-25T06:58:52.830Z,6.00
2023-02-25T07:01:22.668Z,6.00
2023-02-25T07:03:51.245Z,6.00
2023-02-25T07:06:20.667Z,6.00
2023-02-25T07:08:49.235Z,6.00
2023-02-25T07:11:30.640Z,6.00
2023-02-25T07:13:59.230Z,6.00
2023-02-25T07:16:30.352Z,6.00
2023-02-25T07:19:02.408Z,6.00
2023-02-25T07:21:31.527Z,6.10
2023-02-25T07:24:00.230Z,6.10
2023-02-25T07:26:29.401Z,6.10
2023-02-25T07:28:59.337Z,6.20
2023-02-25T07:31:30.060Z,6.20
2023-02-25T07:34:03.511Z,6.30
2023-02-25T07:36:33.230Z,6.30
2023-02-25T07:39:04.189Z,6.30
2023-02-25T07:41:32.683Z,6.30
2023-02-25T07:44:04.694Z,6.30
2023-02-25T07:46:34.906Z,6.40
2023-02-25T07:49:03.565Z,6.40
2023-02-25T07:51:32.127Z,6.40
2023-02-25T07:54:00.692Z,6.40
2023-02-25T07:56:30.930Z,6.50
2023-02-25T07:58:59.337Z,6.50
2023-02-25T08:01:30.029Z,6.60
2023-02-25T08:04:04.205Z,6.70
2023-02-25T08:06:32.820Z,6.80
2023-02-25T08:09:01.173Z,6.80
2023-02-25T08:11:29.599Z,6.90
2023-02-25T08:13:58.018Z,7.00
2023-02-25T08:16:26.330Z,7.00
2023-02-25T08:18:55.438Z,7.00
2023-02-25T08:21:25.522Z,7.00
2023-02-25T08:23:55.272Z,7.10
2023-02-25T08:26:25.774Z,7.10
2023-02-25T08:28:54.517Z,7.10
2023-02-25T08:31:24.572Z,7.20
2023-02-25T08:33:53.966Z,7.40
2023-02-25T08:36:26.696Z,7.70
2023-02-25T08:38:57.493Z,8.00
2023-02-25T08:41:27.427Z,8.20
2023-02-25T08:43:57.659Z,8.50
2023-02-25T08:46:28.742Z,8.80
2023-02-25T08:48:57.658Z,9.20
2023-02-25T08:51:34.480Z,9.50
2023-02-25T08:54:06.852Z,10.00
2023-02-25T08:56:36.382Z,10.50
2023-02-25T08:59:06.312Z,11.20
2023-02-25T09:01:45.911Z,11.70
2023-02-25T09:04:15.315Z,12.20
2023-02-25T09:06:47.583Z,12.80
2023-02-25T09:09:16.454Z,13.30
2023-02-25T09:11:46.121Z,13.80
2023-02-25T09:14:14.819Z,14.20
2023-02-25T09:16:43.302Z,14.60
2023-02-25T09:19:12.785Z,14.80
2023-02-25T09:21:41.512Z,14.90
2023-02-25T09:24:11.981Z,15.10
2023-02-25T09:26:40.425Z,15.30
2023-02-25T09:29:09.441Z,15.60
2023-02-25T09:31:40.037Z,15.90
2023-02-25T09:34:09.981Z,16.30
2023-02-25T09:36:38.666Z,16.70
2023-02-25T09:39:10.585Z,17.00
2023-02-25T09:41:50.072Z,17.30
2023-02-25T09:44:23.500Z,17.50
2023-02-25T09:46:56.812Z,17.60
2023-02-25T09:49:33.450Z,17.40
2023-02-25T09:52:07.010Z,17.20
2023-02-25T09:54:39.580Z,17.00
2023-02-25T09:57:13.743Z,16.90
2023-02-25T09:59:42.126Z,17.00
2023-02-25T10:02:28.236Z,17.10
2023-02-25T10:05:21.712Z,17.40
2023-02-25T10:08:04.819Z,17.70
2023-02-25T10:10:42.348Z,17.90
2023-02-25T10:13:27.273Z,18.00
2023-02-25T10:16:03.913Z,18.20
2023-02-25T10:18:48.098Z,18.30
2023-02-25T10:21:30.799Z,18.40
2023-02-25T10:24:24.050Z,18.50
2023-02-25T10:26:59.534Z,18.70
2023-02-25T10:29:35.207Z,18.90
2023-02-25T10:32:17.438Z,19.10
2023-02-25T10:34:46.883Z,19.30
2023-02-25T10:37:21.575Z,19.40
2023-02-25T10:40:00.092Z,19.60
2023-02-25T10:42:29.067Z,19.70
2023-02-25T10:45:08.309Z,19.90
2023-02-25T10:47:39.187Z,19.90
2023-02-25T10:50:20.336Z,19.80
2023-02-25T10:53:01.386Z,19.50
2023-02-25T10:55:51.864Z,19.00
2023-02-25T10:58:27.988Z,18.60
2023-02-25T11:01:05.159Z,18.40
2023-02-25T11:03:39.248Z,18.00
2023-02-25T11:06:14.467Z,17.60
2023-02-25T11:08:44.237Z,17.30
2023-02-25T11:11:19.696Z,17.10
2023-02-25T11:14:00.612Z,17.20
2023-02-25T11:16:31.793Z,17.40
2023-02-25T11:19:03.045Z,17.70
2023-02-25T11:21:35.801Z,17.80
2023-02-25T11:24:11.833Z,17.90
2023-02-25T11:26:45.070Z,17.60
2023-02-25T11:29:18.997Z,17.30
2023-02-25T11:31:52.598Z,16.90
2023-02-25T11:34:23.697Z,16.50
2023-02-25T11:36:52.692Z,16.20
2023-02-25T11:39:23.997Z,15.90
2023-02-25T11:41:55.089Z,15.60
2023-02-25T11:44:30.798Z,15.20
2023-02-25T11:47:08.491Z,14.80
2023-02-25T11:49:58.285Z,14.40
2023-02-25T11:52:34.297Z,13.90
2023-02-25T11:55:15.313Z,13.50
2023-02-25T11:57:56.153Z,13.00
2023-02-25T12:00:28.773Z,12.50
2023-02-25T12:03:19.507Z,12.10
2023-02-25T12:06:01.363Z,11.80
2023-02-25T12:08:42.912Z,11.50
2023-02-25T12:11:44.395Z,11.40
2023-02-25T12:15:13.210Z,11.20
2023-02-25T12:18:26.341Z,11.10
2023-02-25T12:21:35.557Z,11.00
2023-02-25T12:24:24.876Z,10.90
2023-02-25T12:27:23.964Z,10.80
2023-02-25T12:30:22.684Z,10.80
2023-02-25T12:33:04.656Z,10.70
2023-02-25T12:35:50.853Z,10.60
2023-02-25T12:39:09.350Z,10.40
2023-02-25T12:41:45.857Z,10.30
2023-02-25T12:44:56.500Z,10.10
2023-02-25T12:47:40.491Z,9.90
2023-02-25T12:50:30.557Z,9.80
2023-02-25T12:53:24.886Z,9.70
2023-02-25T12:56:15.545Z,9.50
2023-02-25T12:59:01.415Z,9.40
2023-02-25T13:01:44.028Z,9.30
2023-02-25T13:04:39.704Z,9.30
2023-02-25T13:07:41.168Z,9.20
2023-02-25T13:10:34.586Z,9.20
2023-02-25T13:13:23.185Z,9.30
2023-02-25T13:16:02.413Z,9.30
2023-02-25T13:18:48.478Z,9.30
2023-02-25T13:21:31.069Z,9.30
2023-02-25T13:24:21.536Z,9.20
2023-02-25T13:27:16.083Z,9.30
2023-02-25T13:30:05.081Z,9.30
2023-02-25T13:32:43.467Z,9.50
2023-02-25T13:35:24.028Z,9.60
2023-02-25T13:38:03.473Z,9.70
2023-02-25T13:40:47.889Z,9.90
2023-02-25T13:43:55.191Z,10.10
2023-02-25T13:46:50.779Z,10.40
2023-02-25T13:50:12.978Z,10.80
2023-02-25T13:52:55.534Z,11.20
2023-02-25T13:56:00.983Z,11.50
2023-02-25T13:58:46.564Z,11.60
2023-02-25T14:01:30.873Z,11.50
2023-02-25T14:04:26.221Z,11.30
2023-02-25T14:07:17.897Z,11.20
2023-02-25T14:09:54.660Z,11.00
2023-02-25T14:12:44.004Z,10.70
2023-02-25T14:15:44.739Z,10.60
2023-02-25T14:18:38.977Z,10.40
2023-02-25T14:21:34.716Z,10.30
2023-02-25T14:24:08.844Z,10.10
2023-02-25T14:26:47.086Z,9.90
2023-02-25T14:29:26.745Z,9.80
2023-02-25T14:32:19.475Z,9.70
2023-02-25T14:35:03.199Z,9.60
2023-02-25T14:37:40.233Z,9.40
2023-02-25T14:40:31.088Z,9.40
2023-02-25T14:43:21.982Z,9.30
2023-02-25T14:45:55.917Z,9.30
2023-02-25T14:48:30.043Z,9.30
2023-02-25T14:51:22.729Z,9.20
2023-02-25T14:54:09.670Z,9.20
2023-02-25T14:56:53.137Z,9.20
2023-02-25T14:59:52.783Z,9.40
2023-02-25T15:02:47.848Z,10.00
2023-02-25T15:06:00.778Z,10.40
2023-02-25T15:08:58.210Z,11.10
2023-02-25T15:11:44.353Z,11.70
2023-02-25T15:14:52.017Z,12.30
2023-02-25T15:18:05.769Z,12.80
2023-02-25T15:20:39.077Z,13.10
2023-02-25T15:23:10.317Z,13.00
2023-02-25T15:25:48.610Z,12.80
2023-02-25T15:28:38.927Z,12.50
2023-02-25T15:31:34.605Z,12.10
2023-02-25T15:34:37.122Z,11.70
2023-02-25T15:37:28.217Z,11.20
2023-02-25T15:39:57.883Z,10.70
2023-02-25T15:42:49.501Z,10.40
2023-02-25T15:45:44.155Z,10.00
2023-02-25T15:48:34.392Z,9.70
2023-02-25T15:51:06.421Z,9.40
2023-02-25T15:53:48.342Z,9.20
2023-02-25T15:56:44.866Z,9.00
2023-02-25T15:59:33.203Z,8.80
2023-02-25T16:02:02.869Z,8.60
2023-02-25T16:04:48.968Z,8.40
2023-02-25T16:07:20.840Z,8.30
2023-02-25T16:09:55.827Z,8.10
2023-02-25T16:12:24.978Z,8.00
2023-02-25T16:14:54.720Z,7.80
2023-02-25T16:17:30.762Z,7.60
2023-02-25T16:20:06.961Z,7.40
2023-02-25T16:22:36.808Z,7.20
2023-02-25T16:25:06.298Z,7.00
2023-02-25T16:27:50.120Z,6.80
2023-02-25T16:30:23.771Z,6.60
2023-02-25T16:33:01.750Z,6.40
2023-02-25T16:35:35.734Z,6.20
2023-02-25T16:38:10.903Z,6.10
2023-02-25T16:40:41.626Z,6.00
2023-02-25T16:43:15.521Z,5.90
2023-02-25T16:45:54.499Z,5.80
2023-02-25T16:48:29.776Z,5.60
2023-02-25T16:50:58.783Z,5.60
2023-02-25T16:53:28.506Z,5.50
2023-02-25T16:56:00.316Z,5.40
2023-02-25T16:58:31.205Z,5.30
2023-02-25T17:01:03.896Z,5.20
2023-02-25T17:03:47.492Z,5.10
2023-02-25T17:06:18.580Z,5.00
2023-02-25T17:08:48.906Z,4.90
2023-02-25T17:11:20.127Z,4.80
2023-02-25T17:13:49.623Z,4.80
2023-02-25T17:16:23.649Z,4.70
2023-02-25T17:18:57.196Z,4.60
2023-02-25T17:21:29.364Z,4.60
2023-02-25T17:24:00.441Z,4.50
2023-02-25T17:26:30.307Z,4.40
2023-02-25T17:29:01.656Z,4.40
2023-02-25T17:31:31.513Z,4.30
2023-02-25T17:34:03.630Z,4.30
2023-02-25T17:36:35.299Z,4.20
2023-02-25T17:39:06.176Z,4.20
2023-02-25T17:41:35.754Z,4.10
2023-02-25T17:44:04.417Z,4.10
2023-02-25T17:46:37.856Z,4.00
2023-02-25T17:49:21.322Z,4.00
2023-02-25T17:51:55.622Z,4.00
2023-02-25T17:54:26.805Z,3.90
2023-02-25T17:56:58.756Z,3.90
2023-02-25T17:59:38.864Z,3.80
2023-02-25T18:02:29.978Z,3.70
2023-02-25T18:05:22.430Z,3.70
2023-02-25T18:08:18.780Z,3.70
2023-02-25T18:10:49.679Z,3.70
2023-02-25T18:13:29.187Z,3.60
2023-02-25T18:16:34.259Z,3.60
2023-02-25T18:19:02.784Z,3.50
2023-02-25T18:21:35.384Z,3.50
2023-02-25T18:24:03.810Z,3.50
2023-02-25T18:26:32.361Z,3.60
2023-02-25T18:29:00.760Z,3.60
2023-02-25T18:31:29.286Z,3.60
2023-02-25T18:33:57.784Z,3.60
2023-02-25T18:36:29.261Z,3.60
2023-02-25T18:39:04.549Z,3.50
2023-02-25T18:41:33.695Z,3.50
2023-02-25T18:44:02.447Z,3.50
2023-02-25T18:46:30.889Z,3.50
2023-02-25T18:48:59.282Z,3.50
2023-02-25T18:51:27.743Z,3.50
2023-02-25T18:53:56.121Z,3.50
2023-02-25T18:56:26.350Z,3.40
2023-02-25T18:58:57.766Z,3.40
2023-02-25T19:01:32.023Z,3.40
2023-02-25T19:04:00.576Z,3.40
2023-02-25T19:06:32.125Z,3.40
2023-02-25T19:09:00.831Z,3.40
2023-02-25T19:11:36.072Z,3.50
2023-02-25T19:14:05.885Z,3.50
2023-02-25T19:16:34.346Z,3.50
2023-02-25T19:19:02.725Z,3.50
2023-02-25T19:21:31.959Z,3.50
2023-02-25T19:24:00.274Z,3.50
2023-02-25T19:26:30.728Z,3.50
2023-02-25T19:28:59.289Z,3.50
2023-02-25T19:31:27.752Z,3.50
2023-02-25T19:33:56.616Z,3.50
2023-02-25T19:36:25.413Z,3.50
2023-02-25T19:38:54.012Z,3.50
2023-02-25T19:41:22.511Z,3.50
2023-02-25T19:43:52.503Z,3.50
2023-02-25T19:46:20.925Z,3.60
2023-02-25T19:48:49.244Z,3.60
2023-02-25T19:51:17.698Z,3.60
2023-02-25T19:53:46.372Z,3.60
2023-02-25T19:56:14.793Z,3.60
2023-02-25T19:58:43.168Z,3.60
2023-02-25T20:01:12.955Z,3.60
2023-02-25T20:03:41.706Z,3.60
2023-02-25T20:06:13.503Z,3.60
2023-02-25T20:08:41.983Z,3.50
2023-02-25T20:11:10.796Z,3.50
2023-02-25T20:13:39.500Z,3.50
2023-02-25T20:16:09.421Z,3.50
2023-02-25T20:18:39.355Z,3.50
2023-02-25T20:21:08.021Z,3.40
2023-02-25T20:23:38.898Z,3.40
2023-02-25T20:26:10.378Z,3.40
2023-02-25T20:28:38.912Z,3.40
2023-02-25T20:31:09.477Z,3.40
2023-02-25T20:33:40.510Z,3.30
2023-02-25T20:36:20.511Z,3.30
2023-02-25T20:39:04.858Z,3.30
2023-02-25T20:41:33.296Z,3.30
2023-02-25T20:44:01.811Z,3.30
2023-02-25T20:46:30.451Z,3.30
2023-02-25T20:49:00.622Z,3.20
2023-02-25T20:51:29.593Z,3.20
2023-02-25T20:53:58.186Z,3.20
2023-02-25T20:56:30.480Z,3.20
2023-02-25T20:58:59.193Z,3.20
2023-02-25T21:01:27.516Z,3.20
2023-02-25T21:03:55.906Z,3.20
2023-02-25T21:06:27.303Z,3.20
2023-02-25T21:08:56.257Z,3.20
2023-02-25T21:11:25.482Z,3.20
2023-02-25T21:13:54.524Z,3.10
2023-02-25T21:16:24.473Z,3.10
2023-02-25T21:18:53.574Z,3.10
2023-02-25T21:21:23.218Z,3.10
2023-02-25T21:23:52.901Z,3.10
2023-02-25T21:26:21.320Z,3.10
2023-02-25T21:28:50.019Z,3.10
2023-02-25T21:31:18.580Z,3.10
2023-02-25T21:33:47.394Z,3.00
2023-02-25T21:36:15.885Z,3.00
2023-02-25T21:38:44.389Z,3.00
2023-02-25T21:41:15.861Z,3.00
2023-02-25T21:43:44.882Z,3.00
2023-02-25T21:46:17.852Z,2.90
2023-02-25T21:48:47.536Z,2.90
2023-02-25T21:51:18.116Z,2.90
2023-02-25T21:53:46.753Z,2.90
2023-02-25T21:56:18.210Z,2.90
2023-02-25T21:58:47.193Z,2.90
2023-02-25T22:01:17.257Z,2.90
2023-02-25T22:03:46.588Z,2.80
2023-02-25T22:06:15.963Z,2.80
2023-02-25T22:08:46.055Z,2.80
2023-02-25T22:11:17.353Z,2.80
2023-02-25T22:13:45.840Z,2.80
2023-02-25T22:16:16.279Z,2.80
2023-02-25T22:18:44.737Z,2.70
2023-02-25T22:21:14.358Z,2.70
2023-02-25T22:23:44.452Z,2.70
2023-02-25T22:26:15.030Z,2.70
2023-02-25T22:28:45.938Z,2.70
2023-02-25T22:31:16.486Z,2.70
2023-02-25T22:33:45.986Z,2.70
2023-02-25T22:36:15.316Z,2.70
2023-02-25T22:38:44.750Z,2.70
2023-02-25T22:41:15.492Z,2.70
2023-02-25T22:43:45.669Z,2.70
2023-02-25T22:46:15.829Z,2.70
2023-02-25T22:48:47.122Z,2.60
2023-02-25T22:51:20.478Z,2.60
2023-02-25T22:53:48.892Z,2.60
2023-02-25T22:56:17.489Z,2.60
2023-02-25T22:58:47.202Z,2.60
2023-02-25T23:01:19.403Z,2.60
2023-02-25T23:03:48.625Z,2.60
2023-02-25T23:06:20.297Z,2.60
2023-02-25T23:08:49.693Z,2.60
2023-02-25T23:11:19.914Z,2.60
2023-02-25T23:13:52.563Z,2.60
2023-02-25T23:16:24.001Z,2.50
2023-02-25T23:18:53.229Z,2.50
2023-02-25T23:21:22.133Z,2.50
2023-02-25T23:23:53.258Z,2.50
2023-02-25T23:26:24.696Z,2.50
2023-02-25T23:28:58.016Z,2.50
2023-02-25T23:31:28.956Z,2.50
2023-02-25T23:33:58.539Z,2.50
2023-02-25T23:36:28.113Z,2.50
2023-02-25T23:38:57.930Z,2.40
2023-02-25T23:41:27.613Z,2.40
2023-02-25T23:44:00.574Z,2.40
2023-02-25T23:46:32.113Z,2.40
2023-02-25T23:49:02.790Z,2.40
2023-02-25T23:51:31.916Z,2.40
2023-02-25T23:54:02.884Z,2.40
2023-02-25T23:56:32.704Z,2.40
2023-02-25T23:59:02.939Z,2.30
